Impacts METAR Board
IDs:

KGKY - Arlington Muni, TX, US

Updated at: 0600 UTC 19 Aug 2019
Potential Impact None Slight Moderate High
Time 18/18Z 18/19Z 18/20Z 18/21Z 18/22Z 18/23Z 19/00Z 19/01Z 19/02Z 19/03Z 19/04Z 19/05Z 19/06Z
Temp94 96 98 100 100 100 98 95 93 90 87 87 88
Dewpt71 70 68 66 67 67 66 67 66 68 69 68 71
Altim29.89 29.88 29.87 29.85 29.84 29.83 29.81 29.82 29.84 29.87 29.89 29.90 29.91
VIS10 10 10 10 10 10 10 10 10 10 10 10 10
CIG-- -- -- -- -- -- -- -- -- -- -- -- --
CoverCLRCLRCLRCLRCLRCLRCLRCLRCLRCLRCLRCLRCLR
FltCatVFRVFRVFRVFRVFRVFRVFRVFRVFRVFRVFRVFRVFR
WX--------------------------
WDir140160160140150140130130110130150150
WSpd12 11 9 7 12 14 10 7 6 4 8 7
WGst20 16 16 -- -- -- -- -- -- -- -- -- --
Raw hourly METARs
KGKY 181753Z 14012G20KT 10SM CLR 34/22 A2989 RMK AO2 SLP111 T03440217 10344 20267 58002
KGKY 181853Z 16011G16KT 10SM CLR 36/21 A2988 RMK AO2 SLP108 T03560211
KGKY 181953Z 16009G16KT 10SM CLR 37/20 A2987 RMK AO2 SLP102 T03670200
KGKY 182053Z 10SM CLR 38/19 A2985 RMK AO2 SLP096 T03780189 58013
KGKY 182153Z 14007KT 10SM CLR 38/19 A2984 RMK AO2 SLP094 T03780194
KGKY 182253Z 15012KT 10SM CLR 38/19 A2983 RMK AO2 SLP088 T03780194
KGKY 182353Z 14014KT 10SM CLR 37/19 A2981 RMK AO2 SLP082 T03670189 10383 20344 58015
KGKY 190053Z 13010KT 10SM CLR 35/19 A2982 RMK AO2 SLP088 T03500194
KGKY 190153Z AUTO 13007KT 10SM CLR 34/19 A2984 RMK AO2 SLP093 T03390189
KGKY 190253Z AUTO 11006KT 10SM CLR 32/20 A2987 RMK AO2 SLP102 T03220200 53020
KGKY 190353Z AUTO 13004KT 10SM CLR 31/21 A2989 RMK AO2 SLP110 T03060206
KGKY 190453Z AUTO 15008KT 10SM CLR 31/20 A2990 RMK AO2 SLP114 T03060200
KGKY 190553Z AUTO 15007KT 10SM CLR 31/22 A2991 RMK AO2 SLP117 T03110217 10367 20300 403830267 51014



Page loaded:  06:02 UTC  |   11:02 PM Pacific  |   12:02 AM Mountain  |   01:02 AM Central  |   02:02 AM Eastern

 

ADVISORIES

FORECASTS

FORECASTS

OBSERVATIONS

USER TOOLS

ABOUT US